American Glory — WDA8860 — position and weather

sailwx.info

Track history (hours):
 
Tides and Currents Weather Stations Pressure Air Temp Water Temp Dewpoint Dewpoint Depression Visibility Wind Speed Wind Dir Waves Ship Positions

American Glory

Owner: AMERICAN CRUISE LINES INC, DELMAR, DE. More information available from US FCC via Universal Licensing System and Coast Guard Vessel Documentation Center.

Last reported at 2016-Jun-27 22:33 UTC. Time now 2016-Jun-29 02:06 UTC.
Position N 42°22' W 070°42'.

Length 54 m; draft 2.1 m.

Type: Ship. MMSI: 366858820.

Date/timePositionNaut miles runAvg speedWind from/ knotsBaromVisibWave heightAir tempDewpointWater temp
2016-Jun-27 22:33N 42°22' W 070°42'9 9.1
2016-Jun-27 21:33N 42°31' W 070°41'6 6.1
2016-Jun-27 20:33N 42°37' W 070°39'0 0.0
2016-Jun-27 19:33N 42°37' W 070°39'0 0.0
2016-Jun-27 18:33N 42°37' W 070°39'0 0.0
2016-Jun-27 17:33N 42°37' W 070°39'0 0.0
2016-Jun-27 16:33N 42°37' W 070°39'0 0.0
2016-Jun-27 15:33N 42°37' W 070°39'0 0.0
2016-Jun-27 14:33N 42°37' W 070°39'0 0.0
2016-Jun-27 13:33N 42°37' W 070°39'0 0.0
2016-Jun-27 12:33N 42°37' W 070°39'0 0.0
2016-Jun-27 11:33N 42°37' W 070°39'0 0.0
2016-Jun-27 10:33N 42°37' W 070°39'2 2.4
2016-Jun-27 09:33N 42°34' W 070°39'7 7.4
2016-Jun-27 08:33N 42°40' W 070°32'8 8.1
2016-Jun-27 07:34N 42°47' W 070°27'8 8.0
2016-Jun-27 06:33N 42°54' W 070°22'58 4.3
2016-Jun-26 17:11N 43°46' W 069°47'5 7.5
2016-Jun-26 16:33N 43°46' W 069°41'  
Track history (hours):
 
Tides and Currents Weather Stations Pressure Air Temp Water Temp Dewpoint Dewpoint Depression Visibility Wind Speed Wind Dir Waves Ship Positions

American Glory

Owner: AMERICAN CRUISE LINES INC, DELMAR, DE. More information available from US FCC via Universal Licensing System and Coast Guard Vessel Documentation Center.

Last reported at 2016-Jun-27 22:33 UTC. Time now 2016-Jun-29 02:06 UTC.
Position N 42°22' W 070°42'.

Length 54 m; draft 2.1 m.

Type: Ship. MMSI: 366858820.

Date/timePositionNaut miles runAvg speedWind from/ knotsBaromVisibWave heightAir tempDewpointWater temp
2016-Jun-27 22:33N 42°22' W 070°42'9 9.1
2016-Jun-27 21:33N 42°31' W 070°41'6 6.1
2016-Jun-27 20:33N 42°37' W 070°39'0 0.0
2016-Jun-27 19:33N 42°37' W 070°39'0 0.0
2016-Jun-27 18:33N 42°37' W 070°39'0 0.0
2016-Jun-27 17:33N 42°37' W 070°39'0 0.0
2016-Jun-27 16:33N 42°37' W 070°39'0 0.0
2016-Jun-27 15:33N 42°37' W 070°39'0 0.0
2016-Jun-27 14:33N 42°37' W 070°39'0 0.0
2016-Jun-27 13:33N 42°37' W 070°39'0 0.0
2016-Jun-27 12:33N 42°37' W 070°39'0 0.0
2016-Jun-27 11:33N 42°37' W 070°39'0 0.0
2016-Jun-27 10:33N 42°37' W 070°39'2 2.4
2016-Jun-27 09:33N 42°34' W 070°39'7 7.4
2016-Jun-27 08:33N 42°40' W 070°32'8 8.1
2016-Jun-27 07:34N 42°47' W 070°27'8 8.0
2016-Jun-27 06:33N 42°54' W 070°22'58 4.3
2016-Jun-26 17:11N 43°46' W 069°47'5 7.5
2016-Jun-26 16:33N 43°46' W 069°41'  

Dump ship's entire track history